createdAt,value
2023-04-03T00:00:28.574Z,5.33
2023-04-03T00:01:33.583Z,5.35
2023-04-03T00:02:28.652Z,5.36
2023-04-03T00:03:28.548Z,5.38
2023-04-03T00:04:28.633Z,5.40
2023-04-03T00:05:28.534Z,5.38
2023-04-03T00:06:28.522Z,5.38
2023-04-03T00:07:28.507Z,5.40
2023-04-03T00:08:28.520Z,5.40
2023-04-03T00:09:28.480Z,5.35
2023-04-03T00:10:28.460Z,5.40
2023-04-03T00:11:28.451Z,5.36
2023-04-03T00:12:33.457Z,5.31
2023-04-03T00:13:28.439Z,5.27
2023-04-03T00:14:28.470Z,5.28
2023-04-03T00:15:28.427Z,5.22
2023-04-03T00:16:28.447Z,5.27
2023-04-03T00:17:28.414Z,5.25
2023-04-03T00:18:28.380Z,5.20
2023-04-03T00:19:28.360Z,5.25
2023-04-03T00:20:28.372Z,5.22
2023-04-03T00:21:28.335Z,5.33
2023-04-03T00:22:28.326Z,5.20
2023-04-03T00:23:33.350Z,5.21
2023-04-03T00:24:28.303Z,5.27
2023-04-03T00:25:28.290Z,5.17
2023-04-03T00:26:28.315Z,5.21
2023-04-03T00:27:28.267Z,5.15
2023-04-03T00:28:28.309Z,5.15
2023-04-03T00:29:28.288Z,5.18
2023-04-03T00:30:28.283Z,5.17
2023-04-03T00:31:28.321Z,5.18
2023-04-03T00:32:28.244Z,5.18
2023-04-03T00:33:28.206Z,5.18
2023-04-03T00:34:33.229Z,5.25
2023-04-03T00:35:28.179Z,5.17
2023-04-03T00:36:28.224Z,5.22
2023-04-03T00:37:28.166Z,5.21
2023-04-03T00:38:28.168Z,5.20
2023-04-03T00:39:28.146Z,5.24
2023-04-03T00:40:28.137Z,5.18
2023-04-03T00:41:28.112Z,5.22
2023-04-03T00:42:28.103Z,5.21
2023-04-03T00:43:28.084Z,5.20
2023-04-03T00:44:28.107Z,5.21
2023-04-03T00:45:33.164Z,5.21
2023-04-03T00:46:28.121Z,5.13
2023-04-03T00:47:28.053Z,5.15
2023-04-03T00:48:28.026Z,5.20
2023-04-03T00:49:28.137Z,5.30
2023-04-03T00:50:28.054Z,5.20
2023-04-03T00:51:27.999Z,5.18
2023-04-03T00:52:27.981Z,5.17
2023-04-03T00:53:27.977Z,5.20
2023-04-03T00:54:27.988Z,5.22
2023-04-03T00:55:27.948Z,5.07
2023-04-03T00:56:33.005Z,5.03
2023-04-03T00:57:27.937Z,5.06
2023-04-03T00:58:27.924Z,5.10
2023-04-03T00:59:27.964Z,5.04
2023-04-03T01:00:27.896Z,5.09
2023-04-03T01:01:27.925Z,5.04
2023-04-03T01:02:27.902Z,5.00
2023-04-03T01:03:27.862Z,5.06
2023-04-03T01:04:27.893Z,5.10
2023-04-03T01:05:27.839Z,4.92
2023-04-03T01:06:27.838Z,5.10
2023-04-03T01:07:32.842Z,5.10
2023-04-03T01:08:27.825Z,4.97
2023-04-03T01:09:27.802Z,4.89
2023-04-03T01:10:27.789Z,5.00
2023-04-03T01:11:27.772Z,4.96
2023-04-03T01:12:27.764Z,5.00
2023-04-03T01:13:27.755Z,4.92
2023-04-03T01:14:27.772Z,4.91
2023-04-03T01:15:27.727Z,4.91
2023-04-03T01:16:27.759Z,4.80
2023-04-03T01:17:27.756Z,4.84
2023-04-03T01:18:32.723Z,4.86
2023-04-03T01:19:27.690Z,4.88
2023-04-03T01:20:27.704Z,4.73
2023-04-03T01:21:27.661Z,4.75
2023-04-03T01:22:27.685Z,4.75
2023-04-03T01:23:27.633Z,4.80
2023-04-03T01:24:27.631Z,4.77
2023-04-03T01:25:27.659Z,4.75
2023-04-03T01:26:27.625Z,4.73
2023-04-03T01:27:27.618Z,4.75
2023-04-03T01:28:27.581Z,4.75
2023-04-03T01:29:32.603Z,4.70
2023-04-03T01:30:27.572Z,4.63
2023-04-03T01:31:27.582Z,4.66
2023-04-03T01:32:27.593Z,4.62
2023-04-03T01:33:27.548Z,4.67
2023-04-03T01:34:27.525Z,4.63
2023-04-03T01:35:27.514Z,4.65
2023-04-03T01:36:27.487Z,4.67
2023-04-03T01:37:27.493Z,4.66
2023-04-03T01:38:27.497Z,4.70
2023-04-03T01:39:27.474Z,4.58
2023-04-03T01:40:32.466Z,4.62
2023-04-03T01:41:27.434Z,4.63
2023-04-03T01:42:27.419Z,4.72
2023-04-03T01:43:27.410Z,4.69
2023-04-03T01:44:27.436Z,4.67
2023-04-03T01:45:27.479Z,4.70
2023-04-03T01:46:27.376Z,4.67
2023-04-03T01:47:27.376Z,4.63
2023-04-03T01:48:27.351Z,4.65
2023-04-03T01:49:27.379Z,4.52
2023-04-03T01:50:27.364Z,4.54
2023-04-03T01:51:32.353Z,4.42
2023-04-03T01:52:27.311Z,4.47
2023-04-03T01:53:27.321Z,4.54
2023-04-03T01:54:27.297Z,4.51
2023-04-03T01:55:27.285Z,4.45
2023-04-03T01:56:27.284Z,4.58
2023-04-03T01:57:27.309Z,4.44
2023-04-03T01:58:27.244Z,4.41
2023-04-03T01:59:27.234Z,4.45
2023-04-03T02:00:27.224Z,4.44
2023-04-03T02:01:27.251Z,4.45
2023-04-03T02:02:32.260Z,4.44
2023-04-03T02:03:27.201Z,4.33
2023-04-03T02:04:27.253Z,4.32
2023-04-03T02:05:27.204Z,4.33
2023-04-03T02:06:27.159Z,4.40
2023-04-03T02:07:27.138Z,4.40
2023-04-03T02:08:27.156Z,4.36
2023-04-03T02:09:27.113Z,4.40
2023-04-03T02:10:27.109Z,4.29
2023-04-03T02:11:27.089Z,4.37
2023-04-03T02:12:27.084Z,4.36
2023-04-03T02:13:32.091Z,4.33
2023-04-03T02:14:27.079Z,4.30
2023-04-03T02:15:27.066Z,4.29
2023-04-03T02:16:27.048Z,4.29
2023-04-03T02:17:27.037Z,4.26
2023-04-03T02:18:27.005Z,4.26
2023-04-03T02:19:27.003Z,4.23
2023-04-03T02:20:27.031Z,4.22
2023-04-03T02:21:26.994Z,4.12
2023-04-03T02:22:26.962Z,4.14
2023-04-03T02:23:26.950Z,4.09
2023-04-03T02:24:31.993Z,4.12
2023-04-03T02:25:26.936Z,4.09
2023-04-03T02:26:26.939Z,4.09
2023-04-03T02:27:26.916Z,4.11
2023-04-03T02:28:26.891Z,4.15
2023-04-03T02:29:26.884Z,4.09
2023-04-03T02:30:26.880Z,4.12
2023-04-03T02:31:27.031Z,4.00
2023-04-03T02:32:26.897Z,3.98
2023-04-03T02:33:26.838Z,4.04
2023-04-03T02:34:26.820Z,3.96
2023-04-03T02:35:31.850Z,4.00
2023-04-03T02:36:26.798Z,4.05
2023-04-03T02:37:26.807Z,4.00
2023-04-03T02:38:26.801Z,3.96
2023-04-03T02:39:26.767Z,3.97
2023-04-03T02:40:26.774Z,3.98
2023-04-03T02:41:26.750Z,3.88
2023-04-03T02:42:26.732Z,3.96
2023-04-03T02:43:26.731Z,3.90
2023-04-03T02:44:26.728Z,3.97
2023-04-03T02:45:26.708Z,3.90
2023-04-03T02:46:31.899Z,3.97
2023-04-03T02:47:26.692Z,3.94
2023-04-03T02:48:26.662Z,3.86
2023-04-03T02:49:26.652Z,3.72
2023-04-03T02:50:26.672Z,3.79
2023-04-03T02:51:26.632Z,3.76
2023-04-03T02:52:26.617Z,3.79
2023-04-03T02:53:26.629Z,3.69
2023-04-03T02:54:26.599Z,3.80
2023-04-03T02:55:26.596Z,3.80
2023-04-03T02:56:26.574Z,3.75
2023-04-03T02:57:31.722Z,3.79
2023-04-03T02:58:26.558Z,3.78
2023-04-03T02:59:26.540Z,3.83
2023-04-03T03:00:26.535Z,3.83
2023-04-03T03:01:26.553Z,3.73
2023-04-03T03:02:26.572Z,3.76
2023-04-03T03:03:26.546Z,3.73
2023-04-03T03:04:26.496Z,3.69
2023-04-03T03:05:26.473Z,3.60
2023-04-03T03:06:26.481Z,3.60
2023-04-03T03:07:26.451Z,3.60
2023-04-03T03:08:31.487Z,3.65
2023-04-03T03:09:26.448Z,3.52
2023-04-03T03:10:26.419Z,3.66
2023-04-03T03:11:26.440Z,3.52
2023-04-03T03:12:26.401Z,3.54
2023-04-03T03:13:26.388Z,3.57
2023-04-03T03:14:26.377Z,3.58
2023-04-03T03:15:26.380Z,3.52
2023-04-03T03:16:26.452Z,3.51
2023-04-03T03:17:26.399Z,3.54
2023-04-03T03:18:26.363Z,3.61
2023-04-03T03:19:31.340Z,3.52
2023-04-03T03:20:26.330Z,3.55
2023-04-03T03:21:26.341Z,3.60
2023-04-03T03:22:26.284Z,3.51
2023-04-03T03:23:26.281Z,3.60
2023-04-03T03:24:26.282Z,3.54
2023-04-03T03:25:26.259Z,3.58
2023-04-03T03:26:26.264Z,3.65
2023-04-03T03:27:26.248Z,3.54
2023-04-03T03:28:26.215Z,3.58
2023-04-03T03:29:26.212Z,3.55
2023-04-03T03:30:31.217Z,3.55
2023-04-03T03:31:26.248Z,3.58
2023-04-03T03:32:26.198Z,3.60
2023-04-03T03:33:26.192Z,3.55
2023-04-03T03:34:26.151Z,3.51
2023-04-03T03:35:26.140Z,3.58
2023-04-03T03:36:26.160Z,3.62
2023-04-03T03:37:26.124Z,3.60
2023-04-03T03:38:26.109Z,3.54
2023-04-03T03:39:26.132Z,3.65
2023-04-03T03:40:26.104Z,3.50
2023-04-03T03:41:31.104Z,3.55
2023-04-03T03:42:26.062Z,3.50
2023-04-03T03:43:26.079Z,3.54
2023-04-03T03:44:26.045Z,3.51
2023-04-03T03:45:26.042Z,3.57
2023-04-03T03:46:26.061Z,3.48
2023-04-03T03:47:26.037Z,3.58
2023-04-03T03:48:25.989Z,3.51
2023-04-03T03:49:25.977Z,3.52
2023-04-03T03:50:25.967Z,3.55
2023-04-03T03:51:26.016Z,3.61
2023-04-03T03:52:30.978Z,3.55
2023-04-03T03:53:25.934Z,3.58
2023-04-03T03:54:25.924Z,3.52
2023-04-03T03:55:25.925Z,3.60
2023-04-03T03:56:25.964Z,3.58
2023-04-03T03:57:25.961Z,3.55
2023-04-03T03:58:25.885Z,3.54
2023-04-03T03:59:25.877Z,3.61
2023-04-03T04:00:25.860Z,3.57
2023-04-03T04:01:25.868Z,3.54
2023-04-03T04:02:25.938Z,3.55
2023-04-03T04:03:30.952Z,3.54
2023-04-03T04:04:25.819Z,3.66
2023-04-03T04:05:25.818Z,3.54
2023-04-03T04:06:25.806Z,3.52
2023-04-03T04:07:25.787Z,3.57
2023-04-03T04:08:25.795Z,3.54
2023-04-03T04:09:25.774Z,3.57
2023-04-03T04:10:25.754Z,3.57
2023-04-03T04:11:25.759Z,3.57
2023-04-03T04:12:25.759Z,3.54
2023-04-03T04:13:25.729Z,3.50
2023-04-03T04:14:30.750Z,3.51
2023-04-03T04:15:25.740Z,3.51
2023-04-03T04:16:25.759Z,3.61
2023-04-03T04:17:25.687Z,3.50
2023-04-03T04:18:25.662Z,3.50
2023-04-03T04:19:25.649Z,3.55
2023-04-03T04:20:25.642Z,3.62
2023-04-03T04:21:25.691Z,3.61
2023-04-03T04:22:25.622Z,3.52
2023-04-03T04:23:25.608Z,3.48
2023-04-03T04:24:25.642Z,3.47
2023-04-03T04:25:30.608Z,3.45
2023-04-03T04:26:25.586Z,3.51
2023-04-03T04:27:25.585Z,3.45
2023-04-03T04:28:25.673Z,3.42
2023-04-03T04:29:25.554Z,3.45
2023-04-03T04:30:25.532Z,3.48
2023-04-03T04:31:25.591Z,3.43
2023-04-03T04:32:25.548Z,3.45
2023-04-03T04:33:25.497Z,3.42
2023-04-03T04:34:25.484Z,3.45
2023-04-03T04:35:25.495Z,3.48
2023-04-03T04:36:30.588Z,3.42
2023-04-03T04:37:25.451Z,3.39
2023-04-03T04:38:25.470Z,3.39
2023-04-03T04:39:25.432Z,3.40
2023-04-03T04:40:25.424Z,3.43
2023-04-03T04:41:25.416Z,3.40
2023-04-03T04:42:25.397Z,3.24
2023-04-03T04:43:25.384Z,3.32
2023-04-03T04:44:25.415Z,3.21
2023-04-03T04:45:25.364Z,3.17
2023-04-03T04:46:25.420Z,3.32
2023-04-03T04:47:30.392Z,3.36
2023-04-03T04:48:25.336Z,3.32
2023-04-03T04:49:25.314Z,3.20
2023-04-03T04:50:25.317Z,3.31
2023-04-03T04:51:25.310Z,3.21
2023-04-03T04:52:25.284Z,3.28
2023-04-03T04:53:25.273Z,3.35
2023-04-03T04:54:25.263Z,3.24
2023-04-03T04:55:25.262Z,3.31
2023-04-03T04:56:25.260Z,3.33
2023-04-03T04:57:25.256Z,3.33
2023-04-03T04:58:30.247Z,3.35
2023-04-03T04:59:25.205Z,3.35
2023-04-03T05:00:25.216Z,3.42
2023-04-03T05:01:25.293Z,3.42
2023-04-03T05:02:25.223Z,3.32
2023-04-03T05:03:25.168Z,3.43
2023-04-03T05:04:25.203Z,3.39
2023-04-03T05:05:25.142Z,3.32
2023-04-03T05:06:25.152Z,3.40
2023-04-03T05:07:25.117Z,3.45
2023-04-03T05:08:25.136Z,3.39
2023-04-03T05:09:30.122Z,3.47
2023-04-03T05:10:25.085Z,3.48
2023-04-03T05:11:25.360Z,3.36
2023-04-03T05:12:25.073Z,3.54
2023-04-03T05:13:25.063Z,3.60
2023-04-03T05:14:25.080Z,3.57
2023-04-03T05:15:25.048Z,3.60
2023-04-03T05:16:25.088Z,3.50
2023-04-03T05:17:25.060Z,3.52
2023-04-03T05:18:25.003Z,3.42
2023-04-03T05:19:24.987Z,3.50
2023-04-03T05:20:30.035Z,3.66
2023-04-03T05:21:24.963Z,3.54
2023-04-03T05:22:24.977Z,3.54
2023-04-03T05:23:24.945Z,3.57
2023-04-03T05:24:24.932Z,3.58
2023-04-03T05:25:24.921Z,3.52
2023-04-03T05:26:24.950Z,3.52
2023-04-03T05:27:24.913Z,3.65
2023-04-03T05:28:24.887Z,3.61
2023-04-03T05:29:24.874Z,3.70
2023-04-03T05:30:24.884Z,3.69
2023-04-03T05:31:29.914Z,3.75
2023-04-03T05:32:24.926Z,3.78
2023-04-03T05:33:24.866Z,3.75
2023-04-03T05:34:24.849Z,3.78
2023-04-03T05:35:24.864Z,3.75
2023-04-03T05:36:24.811Z,3.78
2023-04-03T05:37:24.796Z,3.75
2023-04-03T05:38:24.797Z,3.78
2023-04-03T05:39:24.757Z,3.78
2023-04-03T05:40:24.756Z,3.86
2023-04-03T05:41:24.743Z,3.75
2023-04-03T05:42:29.766Z,3.88
2023-04-03T05:43:24.729Z,3.87
2023-04-03T05:44:24.732Z,3.83
2023-04-03T05:45:24.685Z,3.93
2023-04-03T05:46:24.838Z,3.91
2023-04-03T05:47:24.705Z,3.88
2023-04-03T05:48:24.668Z,3.96
2023-04-03T05:49:24.642Z,4.02
2023-04-03T05:50:24.677Z,4.04
2023-04-03T05:51:24.621Z,4.11
2023-04-03T05:52:24.617Z,4.08
2023-04-03T05:53:29.666Z,4.02
2023-04-03T05:54:24.593Z,4.08
2023-04-03T05:55:24.574Z,4.16
2023-04-03T05:56:24.567Z,4.11
2023-04-03T05:57:24.634Z,4.11
2023-04-03T05:58:24.548Z,4.08
2023-04-03T05:59:24.537Z,4.12
2023-04-03T06:00:24.523Z,4.14
2023-04-03T06:01:24.512Z,4.23
2023-04-03T06:02:24.536Z,4.18
2023-04-03T06:03:24.627Z,4.16
2023-04-03T06:04:29.553Z,4.12
2023-04-03T06:05:24.460Z,4.15
2023-04-03T06:06:24.452Z,4.12
2023-04-03T06:07:24.482Z,4.16
2023-04-03T06:08:24.429Z,4.20
2023-04-03T06:09:24.460Z,4.24
2023-04-03T06:10:24.404Z,4.22
2023-04-03T06:11:24.415Z,4.27
2023-04-03T06:12:24.407Z,4.29
2023-04-03T06:13:24.373Z,4.36
2023-04-03T06:14:24.366Z,4.32
2023-04-03T06:15:29.394Z,4.33
2023-04-03T06:16:24.361Z,4.30
2023-04-03T06:17:24.378Z,4.32
2023-04-03T06:18:24.325Z,4.40
2023-04-03T06:19:24.325Z,4.30
2023-04-03T06:20:24.302Z,4.37
2023-04-03T06:21:24.284Z,4.41
2023-04-03T06:22:24.279Z,4.42
2023-04-03T06:23:24.292Z,4.44
2023-04-03T06:24:24.247Z,4.44
2023-04-03T06:25:24.243Z,4.52
2023-04-03T06:26:29.253Z,4.42
2023-04-03T06:27:24.223Z,4.42
2023-04-03T06:28:24.614Z,4.51
2023-04-03T06:29:24.187Z,4.59
2023-04-03T06:30:24.202Z,4.62
2023-04-03T06:31:24.219Z,4.59
2023-04-03T06:32:24.175Z,4.63
2023-04-03T06:33:24.145Z,4.69
2023-04-03T06:34:24.166Z,4.75
2023-04-03T06:35:24.144Z,4.70
2023-04-03T06:36:24.138Z,4.69
2023-04-03T06:37:29.126Z,4.77
2023-04-03T06:38:24.086Z,4.72
2023-04-03T06:39:24.071Z,4.92
2023-04-03T06:40:24.077Z,4.88
2023-04-03T06:41:24.049Z,4.82
2023-04-03T06:42:24.064Z,4.84
2023-04-03T06:43:24.592Z,4.92
2023-04-03T06:44:24.022Z,4.96
2023-04-03T06:45:24.003Z,5.00
2023-04-03T06:46:24.045Z,5.00
2023-04-03T06:47:24.016Z,5.00
2023-04-03T06:48:28.996Z,5.10
2023-04-03T06:49:23.960Z,5.03
2023-04-03T06:50:23.952Z,5.12
2023-04-03T06:51:23.959Z,5.04
2023-04-03T06:52:23.982Z,5.10
2023-04-03T06:53:23.914Z,5.18
2023-04-03T06:54:23.906Z,5.22
2023-04-03T06:55:23.890Z,5.25
2023-04-03T06:56:23.887Z,5.21
2023-04-03T06:57:23.905Z,5.27
2023-04-03T06:58:23.905Z,5.30
2023-04-03T06:59:28.871Z,5.43
2023-04-03T07:00:23.840Z,5.45
2023-04-03T07:01:23.843Z,5.43
2023-04-03T07:02:23.844Z,5.54
2023-04-03T07:03:23.801Z,5.49
2023-04-03T07:04:23.859Z,5.56
2023-04-03T07:05:23.778Z,5.67
2023-04-03T07:06:23.784Z,5.82
2023-04-03T07:07:23.789Z,5.93
2023-04-03T07:08:23.759Z,6.03
2023-04-03T07:09:23.733Z,6.19
2023-04-03T07:10:28.785Z,6.40
2023-04-03T07:11:23.725Z,6.40
2023-04-03T07:12:23.712Z,6.44
2023-04-03T07:13:23.686Z,6.54
2023-04-03T07:14:23.680Z,6.64
2023-04-03T07:15:23.669Z,6.69
2023-04-03T07:16:23.711Z,6.79
2023-04-03T07:17:23.654Z,6.88
2023-04-03T07:18:23.646Z,6.85
2023-04-03T07:19:23.622Z,6.91
2023-04-03T07:20:23.621Z,6.98
2023-04-03T07:21:28.623Z,6.74
2023-04-03T07:22:23.638Z,6.99
2023-04-03T07:23:23.606Z,6.97
2023-04-03T07:24:23.723Z,7.05
2023-04-03T07:25:23.559Z,6.92
2023-04-03T07:26:23.543Z,6.76
2023-04-03T07:27:23.545Z,6.92
2023-04-03T07:28:23.573Z,6.94
2023-04-03T07:29:23.508Z,7.03
2023-04-03T07:30:23.626Z,7.17
2023-04-03T07:31:23.568Z,7.16
2023-04-03T07:32:28.519Z,7.27
2023-04-03T07:33:23.477Z,7.53
2023-04-03T07:34:23.472Z,7.69
2023-04-03T07:35:23.442Z,7.89
2023-04-03T07:36:23.522Z,7.95
2023-04-03T07:37:23.430Z,8.19
2023-04-03T07:38:23.415Z,8.40
2023-04-03T07:39:23.425Z,8.73
2023-04-03T07:40:23.467Z,9.08
2023-04-03T07:41:23.399Z,9.17
2023-04-03T07:42:23.376Z,9.29
2023-04-03T07:43:28.374Z,9.20
2023-04-03T07:44:23.358Z,9.18
2023-04-03T07:45:23.336Z,9.13
2023-04-03T07:46:23.379Z,8.96
2023-04-03T07:47:23.372Z,9.05
2023-04-03T07:48:23.308Z,9.13
2023-04-03T07:49:23.284Z,9.38
2023-04-03T07:50:23.321Z,9.48
2023-04-03T07:51:23.265Z,9.64
2023-04-03T07:52:23.269Z,10.01
2023-04-03T07:53:23.256Z,10.15
2023-04-03T07:54:28.334Z,10.18
2023-04-03T07:55:23.233Z,10.17
2023-04-03T07:56:23.207Z,10.09
2023-04-03T07:57:23.207Z,10.42
2023-04-03T07:58:23.213Z,10.88
2023-04-03T07:59:23.175Z,10.23
2023-04-03T08:00:23.239Z,10.23
2023-04-03T08:01:23.148Z,10.51
2023-04-03T08:02:23.132Z,10.23
2023-04-03T08:03:23.376Z,10.53
2023-04-03T08:04:23.274Z,10.79
2023-04-03T08:05:28.121Z,10.79
2023-04-03T08:07:23.088Z,10.76
2023-04-03T08:08:23.085Z,10.94
2023-04-03T08:09:23.080Z,10.94
2023-04-03T08:10:23.228Z,10.53
2023-04-03T08:11:23.040Z,10.26
2023-04-03T08:12:23.026Z,10.36
2023-04-03T08:13:23.068Z,10.14
2023-04-03T08:14:23.001Z,10.18
2023-04-03T08:15:22.992Z,10.25
2023-04-03T08:16:28.093Z,10.42
2023-04-03T08:17:22.971Z,10.66
2023-04-03T08:18:22.977Z,10.12
2023-04-03T08:19:26.549Z,9.79
2023-04-03T08:20:22.975Z,9.87
2023-04-03T08:21:22.922Z,10.15
2023-04-03T08:22:22.924Z,10.09
2023-04-03T08:23:22.910Z,10.09
2023-04-03T08:24:22.890Z,10.23
2023-04-03T08:25:22.873Z,10.22
2023-04-03T08:26:22.896Z,10.47
2023-04-03T08:27:27.878Z,10.38
2023-04-03T08:28:22.869Z,10.20
2023-04-03T08:29:22.832Z,10.30
2023-04-03T08:30:22.824Z,10.60
2023-04-03T08:31:22.871Z,10.17
2023-04-03T08:32:22.793Z,10.38
2023-04-03T08:33:22.798Z,10.76
2023-04-03T08:34:22.807Z,11.15
2023-04-03T08:35:22.793Z,11.58
2023-04-03T08:36:22.869Z,11.83
2023-04-03T08:37:22.743Z,11.96
2023-04-03T08:38:27.760Z,12.13
2023-04-03T08:39:22.716Z,11.67
2023-04-03T08:40:22.773Z,10.96
2023-04-03T08:41:22.713Z,11.00
2023-04-03T08:42:22.800Z,11.19
2023-04-03T08:43:22.694Z,10.68
2023-04-03T08:44:22.671Z,10.68
2023-04-03T08:45:22.652Z,10.44
2023-04-03T08:46:22.768Z,10.44
2023-04-03T08:47:22.685Z,10.38
2023-04-03T08:48:22.743Z,10.15
2023-04-03T08:49:27.682Z,10.12
2023-04-03T08:50:22.590Z,10.44
2023-04-03T08:51:22.581Z,10.61
2023-04-03T08:52:22.584Z,10.82
2023-04-03T08:53:22.583Z,10.86
2023-04-03T08:54:22.548Z,10.51
2023-04-03T08:55:22.564Z,10.48
2023-04-03T08:56:22.538Z,10.71
2023-04-03T08:57:22.590Z,10.78
2023-04-03T08:58:22.645Z,10.99
2023-04-03T08:59:22.522Z,10.67
2023-04-03T09:00:27.499Z,10.85
2023-04-03T09:01:22.518Z,11.15
2023-04-03T09:02:22.575Z,11.11
2023-04-03T09:03:22.618Z,11.09
2023-04-03T09:04:22.511Z,10.92
2023-04-03T09:05:24.063Z,11.18
2023-04-03T09:06:22.408Z,11.28
2023-04-03T09:07:22.419Z,11.29
2023-04-03T09:08:22.397Z,11.39
2023-04-03T09:09:22.387Z,11.62
2023-04-03T09:10:22.373Z,11.79
2023-04-03T09:11:27.405Z,11.55
2023-04-03T09:12:22.356Z,11.29
2023-04-03T09:13:22.343Z,10.53
2023-04-03T09:14:22.455Z,10.48
2023-04-03T09:15:35.636Z,10.41
2023-04-03T09:16:23.357Z,10.12
2023-04-03T09:17:22.293Z,9.86
2023-04-03T09:18:22.299Z,10.14
2023-04-03T09:19:22.312Z,10.51
2023-04-03T09:20:22.297Z,10.85
2023-04-03T09:21:22.249Z,11.15
2023-04-03T09:22:27.270Z,11.51
2023-04-03T09:23:22.221Z,11.76
2023-04-03T09:24:22.214Z,11.80
2023-04-03T09:25:22.198Z,11.73
2023-04-03T09:26:22.184Z,11.11
2023-04-03T09:27:22.236Z,10.84
2023-04-03T09:28:22.157Z,10.86
2023-04-03T09:29:22.208Z,10.25
2023-04-03T09:30:22.261Z,10.76
2023-04-03T09:31:22.196Z,11.25
2023-04-03T09:32:22.116Z,11.98
2023-04-03T09:33:27.126Z,12.27
2023-04-03T09:34:22.105Z,12.49
2023-04-03T09:35:27.359Z,12.90
2023-04-03T09:36:22.116Z,13.14
2023-04-03T09:37:22.063Z,13.15
2023-04-03T09:38:22.057Z,13.38
2023-04-03T09:39:22.059Z,13.82
2023-04-03T09:40:22.035Z,13.99
2023-04-03T09:41:22.048Z,14.25
2023-04-03T09:42:22.001Z,14.29
2023-04-03T09:43:22.009Z,13.96
2023-04-03T09:44:27.015Z,13.63
2023-04-03T09:45:21.974Z,13.25
2023-04-03T09:46:22.108Z,13.41
2023-04-03T09:47:21.950Z,13.20
2023-04-03T09:48:22.124Z,12.72
2023-04-03T09:49:21.923Z,13.10
2023-04-03T09:50:21.949Z,13.08
2023-04-03T09:51:21.898Z,13.25
2023-04-03T09:52:21.886Z,13.03
2023-04-03T09:53:21.888Z,13.12
2023-04-03T09:54:21.865Z,13.39
2023-04-03T09:55:27.009Z,13.23
2023-04-03T09:56:21.874Z,13.11
2023-04-03T09:57:21.872Z,12.97
2023-04-03T09:58:21.930Z,12.90
2023-04-03T09:59:21.811Z,12.65
2023-04-03T10:00:21.816Z,12.70
2023-04-03T10:01:21.799Z,12.68
2023-04-03T10:02:21.937Z,12.31
2023-04-03T10:03:21.812Z,11.96
2023-04-03T10:04:21.819Z,11.78
2023-04-03T10:05:21.806Z,11.11
2023-04-03T10:06:26.754Z,10.78
2023-04-03T10:07:21.723Z,10.76
2023-04-03T10:08:21.719Z,10.76
2023-04-03T10:09:21.791Z,10.88
2023-04-03T10:10:21.691Z,11.14
2023-04-03T10:11:21.676Z,11.32
2023-04-03T10:12:21.665Z,11.65
2023-04-03T10:13:21.979Z,11.58
2023-04-03T10:14:21.652Z,11.75
2023-04-03T10:15:21.741Z,11.35
2023-04-03T10:16:21.647Z,11.15
2023-04-03T10:17:26.810Z,11.17
2023-04-03T10:18:24.720Z,11.28
2023-04-03T10:19:21.586Z,11.64
2023-04-03T10:20:23.606Z,11.95
2023-04-03T10:21:27.444Z,11.91
2023-04-03T10:22:21.551Z,12.09
2023-04-03T10:23:21.557Z,11.98
2023-04-03T10:24:21.530Z,12.39
2023-04-03T10:25:21.526Z,12.75
2023-04-03T10:26:21.519Z,13.07
2023-04-03T10:27:21.569Z,13.03
2023-04-03T10:28:26.503Z,12.86
2023-04-03T10:29:21.474Z,12.85
2023-04-03T10:30:21.492Z,13.23
2023-04-03T10:31:21.515Z,13.32
2023-04-03T10:32:21.484Z,13.45
2023-04-03T10:33:21.531Z,13.55
2023-04-03T10:34:21.494Z,13.41
2023-04-03T10:35:21.416Z,13.10
2023-04-03T10:36:21.388Z,12.77
2023-04-03T10:37:21.374Z,12.60
2023-04-03T10:38:21.362Z,12.74
2023-04-03T10:39:26.391Z,12.83
2023-04-03T10:40:21.593Z,12.87
2023-04-03T10:41:21.332Z,12.87
2023-04-03T10:42:21.324Z,13.00
2023-04-03T10:43:21.314Z,12.74
2023-04-03T10:44:21.310Z,12.68
2023-04-03T10:45:21.311Z,12.53
2023-04-03T10:46:21.423Z,12.10
2023-04-03T10:47:21.288Z,11.82
2023-04-03T10:48:21.254Z,11.19
2023-04-03T10:49:21.383Z,11.18
2023-04-03T10:50:26.262Z,11.49
2023-04-03T10:51:21.260Z,11.78
2023-04-03T10:52:21.218Z,11.91
2023-04-03T10:53:21.431Z,11.90
2023-04-03T10:54:21.217Z,12.07
2023-04-03T10:55:21.194Z,12.27
2023-04-03T10:56:21.188Z,12.32
2023-04-03T10:57:21.194Z,12.23
2023-04-03T10:58:21.146Z,12.54
2023-04-03T10:59:21.132Z,12.82
2023-04-03T11:00:21.206Z,12.70
2023-04-03T11:01:26.206Z,12.21
2023-04-03T11:02:21.169Z,12.02
2023-04-03T11:03:21.165Z,11.42
2023-04-03T11:04:21.084Z,11.17
2023-04-03T11:05:21.194Z,10.97
2023-04-03T11:06:21.170Z,10.68
2023-04-03T11:07:21.047Z,10.45
2023-04-03T11:08:21.068Z,10.76
2023-04-03T11:09:21.020Z,11.15
2023-04-03T11:10:21.032Z,11.39
2023-04-03T11:11:21.005Z,11.57
2023-04-03T11:12:26.151Z,11.27
2023-04-03T11:13:20.979Z,10.85
2023-04-03T11:14:20.962Z,10.53
2023-04-03T11:15:20.981Z,10.52
2023-04-03T11:16:20.990Z,11.10
2023-04-03T11:17:20.934Z,11.39
2023-04-03T11:18:20.995Z,11.90
2023-04-03T11:19:20.902Z,12.24
2023-04-03T11:20:20.904Z,12.53
2023-04-03T11:21:21.009Z,12.31
2023-04-03T11:22:20.878Z,12.59
2023-04-03T11:23:26.881Z,11.99
2023-04-03T11:24:20.950Z,11.55
2023-04-03T11:25:21.604Z,11.19
2023-04-03T11:26:20.978Z,11.11
2023-04-03T11:27:21.304Z,11.15
2023-04-03T11:28:20.946Z,10.86
2023-04-03T11:29:34.381Z,10.56
2023-04-03T11:30:20.835Z,10.52
2023-04-03T11:31:20.812Z,10.84
2023-04-03T11:32:21.176Z,10.86
2023-04-03T11:33:20.804Z,10.82
2023-04-03T11:34:25.777Z,10.18
2023-04-03T11:35:20.795Z,10.25
2023-04-03T11:36:28.038Z,10.18
2023-04-03T11:37:21.960Z,11.07
2023-04-03T11:38:20.719Z,11.22
2023-04-03T11:39:20.759Z,11.32
2023-04-03T11:40:20.921Z,11.61
2023-04-03T11:41:20.728Z,11.44
2023-04-03T11:42:20.752Z,11.14
2023-04-03T11:43:20.747Z,11.32
2023-04-03T11:44:20.697Z,11.29
2023-04-03T11:45:25.807Z,11.35
2023-04-03T11:46:20.688Z,11.17
2023-04-03T11:47:20.654Z,11.14
2023-04-03T11:48:24.971Z,11.32
2023-04-03T11:49:20.784Z,11.18
2023-04-03T11:50:20.615Z,11.06
2023-04-03T11:51:20.567Z,10.94
2023-04-03T11:52:20.626Z,10.82
2023-04-03T11:53:20.690Z,10.52
2023-04-03T11:54:20.651Z,10.22
2023-04-03T11:55:20.663Z,10.23
2023-04-03T11:56:25.602Z,10.26
2023-04-03T11:57:20.616Z,10.17
2023-04-03T11:58:20.492Z,10.23
2023-04-03T11:59:20.535Z,10.56
2023-04-03T12:00:20.630Z,10.68
2023-04-03T12:01:20.466Z,10.84
2023-04-03T12:02:20.567Z,10.94
2023-04-03T12:03:20.500Z,11.14
2023-04-03T12:04:20.697Z,10.91
2023-04-03T12:05:20.400Z,10.82
2023-04-03T12:06:20.645Z,10.81
2023-04-03T12:07:25.491Z,10.41
2023-04-03T12:08:20.406Z,10.15
2023-04-03T12:09:20.374Z,10.11
2023-04-03T12:10:30.966Z,10.14
2023-04-03T12:11:21.358Z,10.22
2023-04-03T12:12:20.449Z,10.22
2023-04-03T12:13:20.345Z,10.27
2023-04-03T12:14:20.313Z,10.29
2023-04-03T12:15:20.289Z,10.71
2023-04-03T12:16:20.546Z,11.15
2023-04-03T12:17:20.334Z,11.83
2023-04-03T12:18:25.593Z,11.55
2023-04-03T12:19:22.262Z,12.16
2023-04-03T12:20:20.258Z,12.93
2023-04-03T12:21:20.218Z,13.51
2023-04-03T12:22:20.231Z,14.20
2023-04-03T12:23:20.209Z,14.36
2023-04-03T12:24:20.233Z,13.99
2023-04-03T12:25:20.375Z,14.68
2023-04-03T12:26:20.223Z,14.17
2023-04-03T12:27:20.233Z,13.82
2023-04-03T12:28:20.227Z,12.42
2023-04-03T12:29:25.292Z,12.01
2023-04-03T12:30:20.212Z,11.76
2023-04-03T12:31:20.173Z,11.61
2023-04-03T12:32:20.125Z,11.35
2023-04-03T12:33:20.207Z,10.96
2023-04-03T12:34:20.290Z,10.91
2023-04-03T12:35:20.167Z,11.17
2023-04-03T12:36:20.141Z,11.17
2023-04-03T12:37:20.101Z,10.97
2023-04-03T12:38:20.194Z,10.91
2023-04-03T12:39:20.058Z,10.23
2023-04-03T12:40:25.204Z,10.23
2023-04-03T12:41:20.039Z,10.42
2023-04-03T12:42:20.076Z,10.32
2023-04-03T12:43:19.983Z,10.38
2023-04-03T12:44:20.054Z,10.44
2023-04-03T12:45:20.005Z,10.20
2023-04-03T12:46:20.109Z,10.20
2023-04-03T12:47:20.004Z,10.85
2023-04-03T12:48:19.977Z,11.46
2023-04-03T12:49:19.916Z,11.80
2023-04-03T12:50:20.250Z,12.27
2023-04-03T12:51:24.882Z,11.95
2023-04-03T12:52:19.855Z,11.33
2023-04-03T12:53:19.848Z,10.94
2023-04-03T12:54:19.847Z,10.56
2023-04-03T12:55:19.833Z,10.51
2023-04-03T12:56:19.986Z,10.52
2023-04-03T12:57:19.867Z,10.52
2023-04-03T12:58:19.801Z,10.53
2023-04-03T12:59:19.808Z,10.68
2023-04-03T13:00:19.816Z,10.60
2023-04-03T13:01:19.788Z,10.33
2023-04-03T13:02:24.755Z,10.02
2023-04-03T13:03:19.844Z,9.94
2023-04-03T13:04:19.721Z,9.72
2023-04-03T13:05:19.706Z,9.43
2023-04-03T13:06:19.686Z,9.48
2023-04-03T13:07:19.681Z,9.39
2023-04-03T13:08:19.667Z,9.50
2023-04-03T13:09:19.653Z,9.53